Time;durP1;ratioP1;P1;durP2;ratioP2;P2;SDS_P1;SDS_P2;PMS_P1;PMS_P2;Temp;Humidity;BMP_temperature;BMP_pressure;BME280_temperature;BME280_humidity;BME280_pressure;Samples;Min_cycle;Max_cycle;Signal;HPM_P1;HPM_P2
2022/01/19 00:00:29;;;;;;;10.30;9.20;;;;;;;;;;5129062;27;24429;-58
2022/01/19 00:02:55;;;;;;;9.93;8.67;;;;;;;;;;5124249;27;24496;-59
2022/01/19 00:05:20;;;;;;;9.07;8.17;;;;;;;;;;5128878;27;24409;-59
2022/01/19 00:07:45;;;;;;;8.53;7.13;;;;;;;;;;5130631;27;25153;-59
2022/01/19 00:10:12;;;;;;;8.88;7.70;;;;;;;;;;5129893;27;24506;-58
2022/01/19 00:12:38;;;;;;;8.10;7.40;;;;;;;;;;5128845;27;24477;-59
2022/01/19 00:15:03;;;;;;;9.00;8.10;;;;;;;;;;5129477;27;24437;-59
2022/01/19 00:17:28;;;;;;;9.27;7.97;;;;;;;;;;5130192;27;24977;-59
2022/01/19 00:19:53;;;;;;;9.80;8.13;;;;;;;;;;5129966;27;25144;-58
2022/01/19 00:22:18;;;;;;;8.50;7.70;;;;;;;;;;5129825;27;24429;-59
2022/01/19 00:24:44;;;;;;;9.07;7.80;;;;;;;;;;5129165;27;24416;-58
2022/01/19 00:27:09;;;;;;;8.90;7.50;;;;;;;;;;5129526;27;24397;-58
2022/01/19 00:29:34;;;;;;;9.00;8.10;;;;;;;;;;5126669;27;24474;-58
2022/01/19 00:31:59;;;;;;;8.50;7.00;;;;;;;;;;5128272;27;24570;-58
2022/01/19 00:34:24;;;;;;;9.00;8.10;;;;;;;;;;5129581;27;24420;-58
2022/01/19 00:36:50;;;;;;;8.20;7.40;;;;;;;;;;5128160;27;24812;-58
2022/01/19 00:39:15;;;;;;;8.20;7.40;;;;;;;;;;5121282;27;25002;-58
2022/01/19 00:41:40;;;;;;;7.87;7.17;;;;;;;;;;5122638;27;24464;-58
2022/01/19 00:44:05;;;;;;;7.22;6.53;;;;;;;;;;5130244;27;24409;-58
2022/01/19 00:46:30;;;;;;;7.97;7.18;;;;;;;;;;5128063;27;24490;-58
2022/01/19 00:48:55;;;;;;;8.80;7.33;;;;;;;;;;5129374;27;24434;-58
2022/01/19 00:51:21;;;;;;;9.17;7.70;;;;;;;;;;5121361;27;24420;-58
2022/01/19 00:53:46;;;;;;;7.90;7.10;;;;;;;;;;5127356;27;24428;-58
2022/01/19 00:56:11;;;;;;;10.43;6.60;;;;;;;;;;5127771;27;24682;-58
2022/01/19 00:58:36;;;;;;;7.90;7.10;;;;;;;;;;5125359;27;24448;-58
2022/01/19 01:01:01;;;;;;;8.00;7.20;;;;;;;;;;5127966;27;24458;-58
2022/01/19 01:03:26;;;;;;;7.68;6.97;;;;;;;;;;5128388;27;24540;-58
2022/01/19 01:05:51;;;;;;;9.03;7.13;;;;;;;;;;5128590;27;24425;-57
2022/01/19 01:08:17;;;;;;;8.10;7.30;;;;;;;;;;5129268;27;24454;-57
2022/01/19 01:10:43;;;;;;;8.20;7.30;;;;;;;;;;5127723;27;24547;-57
2022/01/19 01:16:18;;;;;;;8.15;7.35;;;;;;;;;;5045610;28;25266;-57
2022/01/19 01:18:43;;;;;;;7.70;7.00;;;;;;;;;;5115610;27;24543;-57
2022/01/19 01:21:09;;;;;;;8.20;7.10;;;;;;;;;;5128595;27;24849;-58
2022/01/19 01:23:35;;;;;;;8.07;7.20;;;;;;;;;;5128436;27;24488;-58
2022/01/19 01:26:01;;;;;;;8.45;7.05;;;;;;;;;;5119741;27;24416;-58
2022/01/19 01:28:26;;;;;;;8.40;7.50;;;;;;;;;;5127963;27;24474;-58
2022/01/19 01:30:52;;;;;;;8.10;7.30;;;;;;;;;;5127818;27;24514;-58
2022/01/19 01:33:17;;;;;;;7.50;6.80;;;;;;;;;;5128018;27;24419;-58
2022/01/19 01:35:42;;;;;;;8.40;6.90;;;;;;;;;;5128145;27;24417;-58
2022/01/19 01:38:08;;;;;;;7.53;6.82;;;;;;;;;;5124210;27;24449;-58
2022/01/19 01:40:34;;;;;;;8.30;7.17;;;;;;;;;;5120734;27;24450;-58
2022/01/19 01:43:00;;;;;;;8.40;6.80;;;;;;;;;;5127441;27;24451;-58
2022/01/19 01:45:29;;;;;;;8.50;7.20;;;;;;;;;;5115958;27;24420;-58
2022/01/19 01:53:28;;;;;;;7.60;6.80;;;;;;;;;;5128761;27;24516;-57
2022/01/19 01:56:04;;;;;;;7.82;7.03;;;;;;;;;;5127002;27;24405;-59
2022/01/19 01:58:30;;;;;;;8.00;7.20;;;;;;;;;;5128171;27;25186;-57
2022/01/19 02:00:56;;;;;;;9.18;7.63;;;;;;;;;;5125400;27;25006;-57
2022/01/19 02:03:21;;;;;;;9.70;8.00;;;;;;;;;;5128388;27;24421;-58
2022/01/19 02:08:38;;;;;;;8.00;7.20;;;;;;;;;;5128712;27;24400;-58
2022/01/19 02:16:42;;;;;;;8.48;7.30;;;;;;;;;;5127682;27;24420;-57
2022/01/19 02:22:00;;;;;;;9.00;8.00;;;;;;;;;;5114832;27;24474;-57
2022/01/19 02:24:32;;;;;;;8.30;7.32;;;;;;;;;;5126568;27;24512;-57
2022/01/19 02:27:12;;;;;;;8.88;7.97;;;;;;;;;;5126945;27;24458;-57
2022/01/19 02:30:20;;;;;;;8.15;7.35;;;;;;;;;;5125684;27;24424;-57
2022/01/19 02:40:47;;;;;;;8.23;7.43;;;;;;;;;;5125843;27;24420;-58
2022/01/19 02:43:20;;;;;;;9.52;8.20;;;;;;;;;;5126849;27;24945;-58
2022/01/19 02:51:13;;;;;;;9.13;8.23;;;;;;;;;;5126578;27;24420;-58
2022/01/19 02:53:38;;;;;;;10.13;8.15;;;;;;;;;;5126079;27;24413;-57
2022/01/19 02:56:11;;;;;;;10.60;8.90;;;;;;;;;;5113866;27;24490;-58
2022/01/19 02:58:43;;;;;;;9.70;8.70;;;;;;;;;;5118077;27;26364;-58
2022/01/19 03:09:20;;;;;;;8.90;8.00;;;;;;;;;;5127206;27;25115;-58
2022/01/19 03:11:45;;;;;;;8.90;8.00;;;;;;;;;;5127059;27;24456;-59
2022/01/19 03:14:12;;;;;;;9.53;8.47;;;;;;;;;;5124192;27;24536;-59
2022/01/19 03:16:37;;;;;;;10.80;8.80;;;;;;;;;;5125705;27;24525;-59
2022/01/19 03:19:03;;;;;;;9.80;8.60;;;;;;;;;;5126526;28;24806;-58
2022/01/19 03:21:28;;;;;;;11.23;9.15;;;;;;;;;;5126342;28;24482;-58
2022/01/19 03:23:53;;;;;;;10.65;9.48;;;;;;;;;;5125998;28;24409;-58
2022/01/19 03:26:18;;;;;;;9.93;8.93;;;;;;;;;;5122242;28;24863;-58
2022/01/19 03:28:43;;;;;;;10.20;8.90;;;;;;;;;;5126843;28;24466;-59
2022/01/19 03:31:09;;;;;;;10.90;9.32;;;;;;;;;;5126698;28;25226;-58
2022/01/19 03:33:34;;;;;;;10.00;9.00;;;;;;;;;;5126206;28;24413;-58
2022/01/19 03:35:59;;;;;;;10.70;9.40;;;;;;;;;;5126019;28;24725;-58
2022/01/19 03:38:24;;;;;;;10.33;9.07;;;;;;;;;;5123956;28;24460;-58
2022/01/19 03:40:50;;;;;;;10.27;8.93;;;;;;;;;;5125078;28;25274;-58
2022/01/19 03:43:15;;;;;;;10.73;9.60;;;;;;;;;;5127119;28;24891;-58
2022/01/19 03:45:50;;;;;;;10.23;9.13;;;;;;;;;;5126347;28;24511;-58
2022/01/19 03:48:31;;;;;;;9.98;8.98;;;;;;;;;;5121788;28;24965;-58
2022/01/19 03:50:56;;;;;;;10.60;9.52;;;;;;;;;;5113770;28;24421;-58
2022/01/19 03:53:22;;;;;;;10.57;9.47;;;;;;;;;;5127211;28;24416;-59
2022/01/19 03:55:47;;;;;;;10.52;9.50;;;;;;;;;;5122904;28;25001;-59
2022/01/19 03:58:12;;;;;;;10.87;9.87;;;;;;;;;;5120346;28;24471;-59
2022/01/19 04:00:42;;;;;;;10.80;9.80;;;;;;;;;;5111332;28;24519;-59
2022/01/19 04:03:09;;;;;;;11.80;10.10;;;;;;;;;;5122306;28;24464;-59
2022/01/19 04:05:56;;;;;;;13.07;11.73;;;;;;;;;;5125759;28;24783;-59
2022/01/19 04:08:21;;;;;;;12.73;11.13;;;;;;;;;;5125722;28;24523;-58
2022/01/19 04:10:46;;;;;;;11.70;10.53;;;;;;;;;;5126622;28;24561;-58
2022/01/19 04:13:24;;;;;;;12.20;10.90;;;;;;;;;;5126061;28;24888;-58
2022/01/19 04:15:50;;;;;;;12.20;10.90;;;;;;;;;;5125618;28;24501;-59
2022/01/19 04:18:15;;;;;;;11.40;10.20;;;;;;;;;;5125322;28;24548;-58
2022/01/19 04:20:42;;;;;;;11.95;10.75;;;;;;;;;;5124289;28;24417;-58
2022/01/19 04:23:08;;;;;;;11.43;10.32;;;;;;;;;;5125778;28;24421;-58
2022/01/19 04:25:33;;;;;;;13.27;9.80;;;;;;;;;;5128015;27;24412;-58
2022/01/19 04:27:58;;;;;;;11.90;10.70;;;;;;;;;;5129159;27;24410;-57
2022/01/19 04:30:27;;;;;;;11.88;10.77;;;;;;;;;;5128531;27;24500;-58
2022/01/19 04:35:21;;;;;;;12.30;11.02;;;;;;;;;;5129916;27;24817;-58
2022/01/19 04:48:26;;;;;;;13.77;11.90;;;;;;;;;;5129837;27;24513;-58
2022/01/19 05:01:55;;;;;;;13.55;12.13;;;;;;;;;;5128226;27;24456;-58
2022/01/19 05:04:29;;;;;;;13.27;11.98;;;;;;;;;;5130180;27;24521;-58
2022/01/19 05:07:12;;;;;;;13.27;11.88;;;;;;;;;;5127881;27;24398;-58
2022/01/19 05:14:47;;;;;;;14.85;13.25;;;;;;;;;;5116434;27;24412;-58
2022/01/19 05:17:12;;;;;;;14.35;12.80;;;;;;;;;;5125913;27;24560;-58
2022/01/19 05:19:37;;;;;;;14.87;12.90;;;;;;;;;;5129363;27;24413;-58
2022/01/19 05:22:02;;;;;;;14.80;12.95;;;;;;;;;;5126606;27;24429;-60
2022/01/19 05:24:27;;;;;;;15.27;12.53;;;;;;;;;;5124342;27;24412;-57
2022/01/19 05:26:53;;;;;;;15.45;12.05;;;;;;;;;;5125858;27;24417;-60
2022/01/19 05:29:18;;;;;;;15.80;12.63;;;;;;;;;;5126356;27;24994;-58
2022/01/19 05:31:43;;;;;;;14.03;12.37;;;;;;;;;;5123937;27;24413;-58
2022/01/19 05:34:08;;;;;;;15.60;13.17;;;;;;;;;;5125496;27;24440;-59
2022/01/19 05:36:33;;;;;;;16.30;13.00;;;;;;;;;;5124579;27;24413;-58
2022/01/19 05:39:03;;;;;;;14.63;13.10;;;;;;;;;;5125018;27;24544;-58
2022/01/19 05:41:28;;;;;;;16.00;13.23;;;;;;;;;;5124663;27;24812;-58
2022/01/19 05:43:53;;;;;;;16.27;13.10;;;;;;;;;;5125810;27;24994;-59
2022/01/19 05:46:20;;;;;;;14.27;12.77;;;;;;;;;;5125717;27;24477;-59
2022/01/19 05:48:45;;;;;;;14.75;13.15;;;;;;;;;;5114202;27;24421;-60
2022/01/19 05:51:10;;;;;;;14.18;12.68;;;;;;;;;;5125269;27;24420;-58
2022/01/19 05:53:35;;;;;;;15.38;12.63;;;;;;;;;;5119651;27;24489;-58
2022/01/19 05:56:00;;;;;;;14.60;13.00;;;;;;;;;;5104369;27;24413;-58
2022/01/19 05:58:26;;;;;;;15.00;12.60;;;;;;;;;;5125366;27;24409;-57
2022/01/19 06:00:51;;;;;;;15.80;13.20;;;;;;;;;;5124613;27;24421;-58
2022/01/19 06:03:17;;;;;;;14.70;12.83;;;;;;;;;;5123993;27;25251;-58
2022/01/19 06:05:42;;;;;;;15.20;13.57;;;;;;;;;;5125959;27;24409;-58
2022/01/19 06:08:28;;;;;;;14.90;12.57;;;;;;;;;;5113822;27;24723;-59
2022/01/19 06:10:57;;;;;;;16.20;13.57;;;;;;;;;;5122236;27;24466;-59
2022/01/19 06:13:23;;;;;;;15.73;14.02;;;;;;;;;;5125023;27;24751;-57
2022/01/19 06:15:48;;;;;;;15.53;13.57;;;;;;;;;;5124842;27;25000;-58
2022/01/19 06:18:14;;;;;;;15.67;13.60;;;;;;;;;;5122370;27;24590;-59
2022/01/19 06:20:39;;;;;;;15.97;14.00;;;;;;;;;;5120130;27;24521;-59
2022/01/19 06:23:05;;;;;;;16.10;13.50;;;;;;;;;;5120550;27;24445;-58
2022/01/19 06:25:30;;;;;;;15.37;13.00;;;;;;;;;;5122132;27;24416;-58
2022/01/19 06:27:55;;;;;;;18.27;13.90;;;;;;;;;;5124689;27;24409;-59
2022/01/19 06:30:20;;;;;;;15.77;13.90;;;;;;;;;;5127150;27;25129;-59
2022/01/19 06:32:46;;;;;;;15.20;13.60;;;;;;;;;;5127507;27;24420;-58
2022/01/19 06:35:11;;;;;;;14.80;13.20;;;;;;;;;;5127259;27;24413;-59
2022/01/19 06:37:36;;;;;;;15.73;14.03;;;;;;;;;;5128158;27;24421;-58
2022/01/19 06:40:03;;;;;;;16.05;14.02;;;;;;;;;;5128409;27;24385;-58
2022/01/19 06:42:29;;;;;;;16.58;14.88;;;;;;;;;;5127252;27;24504;-59
2022/01/19 06:44:54;;;;;;;15.18;13.45;;;;;;;;;;5127627;27;24501;-59
2022/01/19 06:47:19;;;;;;;15.60;14.00;;;;;;;;;;5127712;27;24465;-59
2022/01/19 06:49:44;;;;;;;15.90;14.30;;;;;;;;;;5128061;27;24412;-58
2022/01/19 06:52:09;;;;;;;15.05;13.45;;;;;;;;;;5127356;27;25089;-58
2022/01/19 06:54:35;;;;;;;14.73;13.17;;;;;;;;;;5127893;27;24409;-57
2022/01/19 06:57:00;;;;;;;15.07;13.48;;;;;;;;;;5127324;27;24562;-58
2022/01/19 06:59:25;;;;;;;14.98;13.48;;;;;;;;;;5123619;27;24538;-59
2022/01/19 07:01:50;;;;;;;15.70;14.10;;;;;;;;;;5110127;28;24432;-58
2022/01/19 07:04:17;;;;;;;15.10;13.50;;;;;;;;;;5121123;27;24424;-59
2022/01/19 07:06:42;;;;;;;15.50;13.90;;;;;;;;;;5119615;27;24478;-57
2022/01/19 07:09:08;;;;;;;16.47;14.77;;;;;;;;;;5125528;27;24405;-57
2022/01/19 07:11:35;;;;;;;16.77;14.97;;;;;;;;;;5114224;27;24421;-58
2022/01/19 07:14:00;;;;;;;17.30;15.50;;;;;;;;;;5124593;27;24927;-58
2022/01/19 07:16:25;;;;;;;17.38;15.57;;;;;;;;;;5122627;27;24497;-58
2022/01/19 07:18:51;;;;;;;16.87;15.17;;;;;;;;;;5125353;27;24735;-58
2022/01/19 07:21:16;;;;;;;17.07;15.33;;;;;;;;;;5127282;27;24428;-58
2022/01/19 07:23:41;;;;;;;16.75;15.05;;;;;;;;;;5126653;27;24416;-57
2022/01/19 07:26:06;;;;;;;19.02;16.98;;;;;;;;;;5126864;28;24517;-58
2022/01/19 07:28:31;;;;;;;17.77;15.95;;;;;;;;;;5109733;28;24871;-57
2022/01/19 07:30:56;;;;;;;18.97;16.80;;;;;;;;;;5107620;28;24752;-58
2022/01/19 07:33:22;;;;;;;18.63;16.60;;;;;;;;;;5117853;28;24631;-57
2022/01/19 07:35:51;;;;;;;18.35;16.45;;;;;;;;;;5124169;28;24459;-58
2022/01/19 07:38:16;;;;;;;18.48;16.58;;;;;;;;;;5125272;28;24898;-57
2022/01/19 07:40:41;;;;;;;17.80;15.90;;;;;;;;;;5126692;28;24428;-57
2022/01/19 07:43:07;;;;;;;18.42;16.50;;;;;;;;;;5126416;28;24719;-58
2022/01/19 07:45:32;;;;;;;16.93;15.13;;;;;;;;;;5126292;28;24417;-58
2022/01/19 07:47:57;;;;;;;17.63;15.30;;;;;;;;;;5122116;28;24450;-58
2022/01/19 07:50:22;;;;;;;19.10;17.10;;;;;;;;;;5125398;28;24409;-58
2022/01/19 07:52:48;;;;;;;18.00;16.10;;;;;;;;;;5125334;28;24516;-58
2022/01/19 07:55:13;;;;;;;18.23;16.33;;;;;;;;;;5124608;27;24884;-57
2022/01/19 07:57:40;;;;;;;17.92;16.02;;;;;;;;;;5126526;28;24981;-57
2022/01/19 08:00:06;;;;;;;18.40;16.50;;;;;;;;;;5129231;27;24426;-58
2022/01/19 08:02:33;;;;;;;19.47;17.40;;;;;;;;;;5130665;27;24429;-57
2022/01/19 08:04:58;;;;;;;18.77;16.83;;;;;;;;;;5131033;27;24413;-57
2022/01/19 08:07:24;;;;;;;19.20;17.17;;;;;;;;;;5130993;27;24836;-58
2022/01/19 08:09:49;;;;;;;20.30;17.65;;;;;;;;;;5130643;27;24480;-58
2022/01/19 08:12:14;;;;;;;19.90;17.80;;;;;;;;;;5130163;27;24386;-58
2022/01/19 08:14:39;;;;;;;20.33;18.17;;;;;;;;;;5130852;27;24504;-58
2022/01/19 08:17:04;;;;;;;21.98;19.58;;;;;;;;;;5130815;27;24409;-58
2022/01/19 08:19:29;;;;;;;20.02;17.92;;;;;;;;;;5130618;27;25081;-58
2022/01/19 08:21:54;;;;;;;21.43;18.97;;;;;;;;;;5130464;27;24408;-59
2022/01/19 08:24:20;;;;;;;21.53;19.10;;;;;;;;;;5130385;27;24461;-58
2022/01/19 08:26:45;;;;;;;22.80;19.40;;;;;;;;;;5130335;27;24428;-58
2022/01/19 08:29:10;;;;;;;21.20;18.97;;;;;;;;;;5130177;27;24423;-58
2022/01/19 08:31:35;;;;;;;22.15;19.50;;;;;;;;;;5130793;27;24407;-58
2022/01/19 08:34:01;;;;;;;24.27;21.67;;;;;;;;;;5130515;27;24492;-57
2022/01/19 08:36:27;;;;;;;27.08;22.90;;;;;;;;;;5129904;27;24452;-58
2022/01/19 08:38:53;;;;;;;23.90;20.63;;;;;;;;;;5130044;27;24428;-58
2022/01/19 08:41:18;;;;;;;24.73;21.10;;;;;;;;;;5130287;27;24400;-58
2022/01/19 08:43:43;;;;;;;24.48;19.17;;;;;;;;;;5128046;27;24404;-58
2022/01/19 08:46:08;;;;;;;23.23;19.95;;;;;;;;;;5125766;27;24775;-59
2022/01/19 08:48:33;;;;;;;23.40;19.10;;;;;;;;;;5130185;27;24381;-58
2022/01/19 08:50:58;;;;;;;23.20;19.23;;;;;;;;;;5130364;27;24385;-58
2022/01/19 08:53:24;;;;;;;23.38;19.00;;;;;;;;;;5129432;27;25167;-57
2022/01/19 08:55:49;;;;;;;23.00;19.47;;;;;;;;;;5130018;27;24540;-58
2022/01/19 08:58:14;;;;;;;24.60;20.77;;;;;;;;;;5129034;27;24515;-57
2022/01/19 09:00:41;;;;;;;24.63;20.70;;;;;;;;;;5130356;27;24401;-57
2022/01/19 09:03:06;;;;;;;23.10;20.08;;;;;;;;;;5129445;27;25018;-57
2022/01/19 09:05:31;;;;;;;21.30;19.00;;;;;;;;;;5129472;27;24520;-57
2022/01/19 09:07:56;;;;;;;19.85;17.70;;;;;;;;;;5130168;27;24994;-57
2022/01/19 09:10:22;;;;;;;21.47;19.17;;;;;;;;;;5129520;27;24996;-57
2022/01/19 09:12:47;;;;;;;18.60;16.53;;;;;;;;;;5129326;27;24389;-58
2022/01/19 09:15:13;;;;;;;18.85;16.85;;;;;;;;;;5129602;27;24826;-57
2022/01/19 09:17:39;;;;;;;18.23;16.33;;;;;;;;;;5129582;27;24770;-57
2022/01/19 09:20:05;;;;;;;18.27;16.48;;;;;;;;;;5129215;27;24998;-58
2022/01/19 09:22:31;;;;;;;19.10;16.90;;;;;;;;;;5128363;27;24544;-57
2022/01/19 09:24:56;;;;;;;20.37;18.27;;;;;;;;;;5129169;27;24407;-57
2022/01/19 09:27:21;;;;;;;18.70;16.70;;;;;;;;;;5128691;27;24413;-57
2022/01/19 09:29:47;;;;;;;17.77;15.98;;;;;;;;;;5129300;27;24404;-59
2022/01/19 09:32:12;;;;;;;18.40;16.50;;;;;;;;;;5128791;27;25015;-58
2022/01/19 09:34:43;;;;;;;17.73;15.83;;;;;;;;;;5129495;27;24789;-57
2022/01/19 09:37:09;;;;;;;17.17;15.00;;;;;;;;;;5128130;27;24397;-58
2022/01/19 09:39:34;;;;;;;15.70;14.13;;;;;;;;;;5128971;27;24419;-57
2022/01/19 09:42:00;;;;;;;15.50;13.90;;;;;;;;;;5129089;27;24413;-57
2022/01/19 09:44:26;;;;;;;15.10;13.50;;;;;;;;;;5128869;27;24432;-57
2022/01/19 09:46:51;;;;;;;17.40;15.27;;;;;;;;;;5128616;27;24551;-57
2022/01/19 09:49:18;;;;;;;17.15;15.40;;;;;;;;;;5128757;27;24874;-57
2022/01/19 09:51:43;;;;;;;17.50;15.70;;;;;;;;;;5129188;27;24441;-56
2022/01/19 09:54:12;;;;;;;19.50;16.90;;;;;;;;;;5128317;27;24409;-57
2022/01/19 09:56:37;;;;;;;19.40;17.40;;;;;;;;;;5129174;27;24448;-57
2022/01/19 09:59:02;;;;;;;17.90;15.98;;;;;;;;;;5128089;27;24409;-57
2022/01/19 10:01:28;;;;;;;18.30;16.40;;;;;;;;;;5128042;27;24509;-58
2022/01/19 10:03:53;;;;;;;18.10;16.13;;;;;;;;;;5128595;27;24911;-58
2022/01/19 10:06:25;;;;;;;16.57;14.83;;;;;;;;;;5128423;27;24434;-57
2022/01/19 10:08:52;;;;;;;17.33;15.45;;;;;;;;;;5128100;27;25035;-57
2022/01/19 10:17:01;;;;;;;14.90;13.10;;;;;;;;;;5120289;27;24454;-58
2022/01/19 10:19:31;;;;;;;15.07;13.48;;;;;;;;;;5128529;27;25182;-58
2022/01/19 10:21:56;;;;;;;15.40;13.82;;;;;;;;;;5127743;27;24501;-58
2022/01/19 10:24:32;;;;;;;14.93;13.32;;;;;;;;;;5127052;27;24497;-58
2022/01/19 10:27:18;;;;;;;14.67;13.17;;;;;;;;;;5128354;27;24816;-58
2022/01/19 10:29:43;;;;;;;14.32;12.75;;;;;;;;;;5110415;27;24965;-59
2022/01/19 10:32:08;;;;;;;13.53;12.17;;;;;;;;;;5126945;27;24421;-58
2022/01/19 10:34:33;;;;;;;14.77;12.75;;;;;;;;;;5128208;27;24393;-58
2022/01/19 10:37:02;;;;;;;13.82;12.32;;;;;;;;;;5127931;27;24428;-58
2022/01/19 10:39:51;;;;;;;14.27;12.77;;;;;;;;;;5127716;27;24842;-58
2022/01/19 10:42:18;;;;;;;15.20;13.70;;;;;;;;;;5127131;27;24485;-58
2022/01/19 10:44:43;;;;;;;15.85;13.70;;;;;;;;;;5127428;27;24849;-59
2022/01/19 10:47:10;;;;;;;15.10;13.50;;;;;;;;;;5127690;27;24814;-59
2022/01/19 10:49:48;;;;;;;14.20;12.80;;;;;;;;;;5127934;27;24388;-58
2022/01/19 10:52:33;;;;;;;16.33;14.55;;;;;;;;;;5127704;27;24388;-58
2022/01/19 10:54:59;;;;;;;14.85;13.25;;;;;;;;;;5127200;27;24812;-58
2022/01/19 10:57:26;;;;;;;14.82;13.32;;;;;;;;;;5127543;27;24465;-58
2022/01/19 10:59:51;;;;;;;14.27;12.77;;;;;;;;;;5127598;27;24969;-58
2022/01/19 11:02:17;;;;;;;15.30;13.70;;;;;;;;;;5127958;27;24516;-58
2022/01/19 11:04:42;;;;;;;16.20;14.50;;;;;;;;;;5127224;27;24386;-58
2022/01/19 11:07:08;;;;;;;15.10;13.50;;;;;;;;;;5127100;27;24593;-58
2022/01/19 11:09:34;;;;;;;13.63;12.23;;;;;;;;;;5127590;27;24460;-58
2022/01/19 11:12:03;;;;;;;12.20;11.00;;;;;;;;;;5127569;27;24953;-58
2022/01/19 11:14:28;;;;;;;14.25;12.75;;;;;;;;;;5126328;27;24434;-58
2022/01/19 11:16:54;;;;;;;13.27;11.97;;;;;;;;;;5127313;27;24822;-58
2022/01/19 11:19:20;;;;;;;12.07;10.77;;;;;;;;;;5127229;27;24520;-59
2022/01/19 11:21:50;;;;;;;12.03;10.83;;;;;;;;;;5127118;27;24423;-59
2022/01/19 11:24:32;;;;;;;13.70;12.30;;;;;;;;;;5127169;27;24412;-59
2022/01/19 11:26:57;;;;;;;13.45;12.20;;;;;;;;;;5126798;27;24425;-59
2022/01/19 11:29:23;;;;;;;12.10;10.90;;;;;;;;;;5127174;28;24797;-59
2022/01/19 11:31:50;;;;;;;12.10;10.90;;;;;;;;;;5126453;28;25093;-58
2022/01/19 11:34:15;;;;;;;13.38;11.95;;;;;;;;;;5127286;27;24421;-57
2022/01/19 11:36:42;;;;;;;13.50;12.20;;;;;;;;;;5131547;27;24419;-58
2022/01/19 11:39:17;;;;;;;13.05;11.75;;;;;;;;;;5130973;27;24532;-58
2022/01/19 11:41:54;;;;;;;12.98;11.68;;;;;;;;;;5131041;27;24425;-57
2022/01/19 11:44:28;;;;;;;13.68;12.27;;;;;;;;;;5131082;27;24425;-57
2022/01/19 11:46:55;;;;;;;12.68;11.48;;;;;;;;;;5131004;27;24970;-57
2022/01/19 11:49:38;;;;;;;12.02;10.82;;;;;;;;;;5131181;27;24431;-57
2022/01/19 11:52:04;;;;;;;12.38;11.18;;;;;;;;;;5131421;27;24381;-58
2022/01/19 11:54:31;;;;;;;11.97;10.77;;;;;;;;;;5130225;27;24988;-57
2022/01/19 11:57:00;;;;;;;11.18;10.07;;;;;;;;;;5131348;27;24453;-57
2022/01/19 11:59:27;;;;;;;10.90;9.80;;;;;;;;;;5130699;27;24409;-58
2022/01/19 12:01:53;;;;;;;11.27;10.07;;;;;;;;;;5130943;27;24415;-57
2022/01/19 12:04:19;;;;;;;11.38;10.27;;;;;;;;;;5130628;27;24876;-57
2022/01/19 12:06:45;;;;;;;11.80;10.23;;;;;;;;;;5130572;27;24448;-58
2022/01/19 12:09:12;;;;;;;11.13;10.00;;;;;;;;;;5129904;27;24409;-58
2022/01/19 12:11:41;;;;;;;10.50;9.40;;;;;;;;;;5130539;27;24393;-59
2022/01/19 12:14:16;;;;;;;11.30;10.10;;;;;;;;;;5130242;27;24420;-59
2022/01/19 12:17:25;;;;;;;13.07;11.70;;;;;;;;;;5130012;27;24417;-57
2022/01/19 12:19:51;;;;;;;13.40;11.50;;;;;;;;;;5100191;27;24860;-58
2022/01/19 12:22:20;;;;;;;13.40;12.10;;;;;;;;;;5130207;27;24421;-57
2022/01/19 12:24:56;;;;;;;13.43;12.13;;;;;;;;;;5130147;27;24416;-58
2022/01/19 12:27:22;;;;;;;13.70;12.30;;;;;;;;;;5130174;27;24394;-58
2022/01/19 12:29:48;;;;;;;14.95;12.70;;;;;;;;;;5128698;27;24455;-58
2022/01/19 12:32:33;;;;;;;14.63;13.23;;;;;;;;;;5130318;27;24444;-59
2022/01/19 12:35:07;;;;;;;14.50;12.52;;;;;;;;;;5130334;27;24434;-57
2022/01/19 12:37:32;;;;;;;12.70;11.40;;;;;;;;;;5129764;27;24429;-58
2022/01/19 12:39:58;;;;;;;12.63;11.37;;;;;;;;;;5129497;27;24420;-58
2022/01/19 12:42:32;;;;;;;12.73;11.27;;;;;;;;;;5129494;27;24432;-59
2022/01/19 12:45:01;;;;;;;12.70;11.50;;;;;;;;;;5129373;27;24397;-58
2022/01/19 12:47:27;;;;;;;11.83;10.73;;;;;;;;;;5130029;27;24490;-58
2022/01/19 12:49:53;;;;;;;12.30;11.10;;;;;;;;;;5129860;27;24511;-57
2022/01/19 12:52:19;;;;;;;12.80;11.60;;;;;;;;;;5129185;27;24420;-58
2022/01/19 12:54:44;;;;;;;11.50;10.40;;;;;;;;;;5128774;27;24452;-59
2022/01/19 12:57:15;;;;;;;12.53;11.20;;;;;;;;;;5129183;27;24497;-59
2022/01/19 12:59:40;;;;;;;13.00;11.80;;;;;;;;;;5129639;27;24443;-59
2022/01/19 13:02:06;;;;;;;13.93;11.57;;;;;;;;;;5128707;27;24452;-59
2022/01/19 13:04:32;;;;;;;11.93;10.82;;;;;;;;;;5128772;27;24808;-58
2022/01/19 13:07:18;;;;;;;13.20;11.90;;;;;;;;;;5129013;27;24405;-58
2022/01/19 13:10:46;;;;;;;12.43;11.13;;;;;;;;;;5129452;27;24434;-58
2022/01/19 13:12:57;;;;;;;12.00;10.70;;;;;;;;;;5120427;27;24412;-58
2022/01/19 13:15:23;;;;;;;12.38;11.27;;;;;;;;;;5129162;27;24391;-59
2022/01/19 13:17:50;;;;;;;11.15;9.95;;;;;;;;;;5128993;27;24530;-59
2022/01/19 13:20:19;;;;;;;10.55;9.55;;;;;;;;;;5108817;28;24502;-58
2022/01/19 13:22:46;;;;;;;11.20;10.20;;;;;;;;;;5117100;27;24432;-59
2022/01/19 13:25:19;;;;;;;11.68;10.57;;;;;;;;;;5128877;27;24646;-58
2022/01/19 13:27:45;;;;;;;10.80;9.80;;;;;;;;;;5129353;27;24390;-59
2022/01/19 13:30:10;;;;;;;10.60;9.60;;;;;;;;;;5129272;27;24391;-58
2022/01/19 13:32:38;;;;;;;10.63;9.67;;;;;;;;;;5128668;27;24419;-59
2022/01/19 13:35:04;;;;;;;10.80;9.90;;;;;;;;;;5129096;27;24416;-59
2022/01/19 13:37:45;;;;;;;10.93;9.93;;;;;;;;;;5127959;27;24885;-58
2022/01/19 13:40:12;;;;;;;9.90;9.00;;;;;;;;;;5129009;27;24424;-58
2022/01/19 13:42:39;;;;;;;11.00;9.90;;;;;;;;;;5128672;27;24465;-58
2022/01/19 13:45:10;;;;;;;11.00;10.00;;;;;;;;;;5129316;27;24434;-57
2022/01/19 13:47:53;;;;;;;11.60;10.50;;;;;;;;;;5128954;27;24501;-58
2022/01/19 13:50:19;;;;;;;10.50;9.55;;;;;;;;;;5129254;27;24950;-60
2022/01/19 13:52:44;;;;;;;11.80;10.67;;;;;;;;;;5128924;27;24441;-59
2022/01/19 13:55:16;;;;;;;10.00;9.00;;;;;;;;;;5128540;27;25026;-59
2022/01/19 13:57:42;;;;;;;9.70;8.70;;;;;;;;;;5128011;27;24801;-58
2022/01/19 14:00:12;;;;;;;8.75;8.05;;;;;;;;;;5127934;27;24771;-59
2022/01/19 14:02:37;;;;;;;11.00;9.77;;;;;;;;;;5128638;27;24981;-59
2022/01/19 14:05:04;;;;;;;9.35;8.45;;;;;;;;;;5128696;27;24409;-59
2022/01/19 14:07:29;;;;;;;9.65;8.73;;;;;;;;;;5127878;27;24441;-59
2022/01/19 14:10:03;;;;;;;9.95;9.05;;;;;;;;;;5128357;27;24522;-58
2022/01/19 14:12:29;;;;;;;10.00;9.00;;;;;;;;;;5107579;28;24501;-59
2022/01/19 14:14:56;;;;;;;11.17;10.00;;;;;;;;;;5110305;27;24490;-57
2022/01/19 14:17:24;;;;;;;11.07;9.97;;;;;;;;;;5128701;27;24397;-58
2022/01/19 14:19:49;;;;;;;13.98;9.95;;;;;;;;;;5127196;27;24451;-59
2022/01/19 14:22:22;;;;;;;11.15;9.98;;;;;;;;;;5127960;27;24478;-59
2022/01/19 14:24:59;;;;;;;11.70;10.57;;;;;;;;;;5128049;27;24548;-59
2022/01/19 14:27:24;;;;;;;14.05;10.88;;;;;;;;;;5128556;27;24401;-60
2022/01/19 14:30:09;;;;;;;11.80;10.60;;;;;;;;;;5127867;27;24383;-57
2022/01/19 14:32:45;;;;;;;10.55;9.55;;;;;;;;;;5127637;27;24421;-59
2022/01/19 14:35:29;;;;;;;12.27;10.15;;;;;;;;;;5127873;27;24489;-58
2022/01/19 14:38:01;;;;;;;12.57;11.27;;;;;;;;;;5127711;27;25057;-58
2022/01/19 14:40:26;;;;;;;12.40;11.18;;;;;;;;;;5128064;27;25210;-59
2022/01/19 14:42:52;;;;;;;12.13;10.83;;;;;;;;;;5126742;27;24432;-58
2022/01/19 14:45:26;;;;;;;11.57;10.47;;;;;;;;;;5127308;27;24759;-58
2022/01/19 14:47:54;;;;;;;12.07;10.88;;;;;;;;;;5127635;27;24952;-59
2022/01/19 14:50:19;;;;;;;12.82;11.48;;;;;;;;;;5128172;27;24446;-58
2022/01/19 14:52:44;;;;;;;13.10;11.45;;;;;;;;;;5127125;27;24417;-59
2022/01/19 14:55:10;;;;;;;12.20;10.60;;;;;;;;;;5125206;27;24425;-59
2022/01/19 14:57:35;;;;;;;12.50;11.20;;;;;;;;;;5127856;27;24446;-59
2022/01/19 15:00:03;;;;;;;13.50;11.27;;;;;;;;;;5126442;27;24958;-59
2022/01/19 15:02:29;;;;;;;14.23;10.95;;;;;;;;;;5123904;27;25317;-60
2022/01/19 15:04:54;;;;;;;13.15;11.02;;;;;;;;;;5122025;27;24457;-58
2022/01/19 15:07:19;;;;;;;12.70;11.30;;;;;;;;;;5126955;27;24452;-58
2022/01/19 15:09:44;;;;;;;13.55;11.13;;;;;;;;;;5126892;27;24499;-59
2022/01/19 15:12:10;;;;;;;12.40;11.10;;;;;;;;;;5112001;27;25015;-58
2022/01/19 15:14:36;;;;;;;12.20;10.90;;;;;;;;;;5111177;27;24380;-58
2022/01/19 15:17:01;;;;;;;11.80;10.48;;;;;;;;;;5120304;27;24496;-58
2022/01/19 15:19:26;;;;;;;11.82;10.50;;;;;;;;;;5127110;27;24528;-59
2022/01/19 15:21:51;;;;;;;11.10;9.97;;;;;;;;;;5125901;27;25029;-58
2022/01/19 15:24:16;;;;;;;10.63;9.52;;;;;;;;;;5123574;27;24421;-57
2022/01/19 15:26:42;;;;;;;10.00;9.00;;;;;;;;;;5125840;27;24809;-57
2022/01/19 15:29:08;;;;;;;10.30;9.20;;;;;;;;;;5126768;27;24489;-59
2022/01/19 15:31:33;;;;;;;10.40;9.10;;;;;;;;;;5124051;28;24820;-59
2022/01/19 15:33:58;;;;;;;9.77;8.87;;;;;;;;;;5120076;28;24517;-57
2022/01/19 15:36:23;;;;;;;10.07;9.05;;;;;;;;;;5120198;27;24427;-58
2022/01/19 15:38:48;;;;;;;10.20;9.00;;;;;;;;;;5119528;28;24457;-58
2022/01/19 15:41:14;;;;;;;9.67;8.77;;;;;;;;;;5118412;28;24425;-58